sensor_id;sensor_type;location;lat;lon;timestamp;pressure;altitude;pressure_sealevel;temperature;humidity
14383;BME280;7275;50.328;8.720;2023-04-23T00:00:27;98968.81;;;18.98;46.99
14383;BME280;7275;50.328;8.720;2023-04-23T00:02:56;98966.25;;;18.96;47.14
14383;BME280;7275;50.328;8.720;2023-04-23T00:05:44;98963.13;;;18.91;47.12
14383;BME280;7275;50.328;8.720;2023-04-23T00:08:14;98959.44;;;18.92;47.20
14383;BME280;7275;50.328;8.720;2023-04-23T00:10:45;98962.25;;;18.91;47.16
14383;BME280;7275;50.328;8.720;2023-04-23T00:13:13;98958.16;;;18.87;47.42
14383;BME280;7275;50.328;8.720;2023-04-23T00:15:41;98956.69;;;18.83;47.53
14383;BME280;7275;50.328;8.720;2023-04-23T00:18:09;98956.94;;;18.80;47.70
14383;BME280;7275;50.328;8.720;2023-04-23T00:20:36;98958.91;;;18.78;47.57
14383;BME280;7275;50.328;8.720;2023-04-23T00:23:04;98966.09;;;18.77;47.82
14383;BME280;7275;50.328;8.720;2023-04-23T00:25:31;98961.84;;;18.75;47.82
14383;BME280;7275;50.328;8.720;2023-04-23T00:28:00;98962.81;;;18.74;47.92
14383;BME280;7275;50.328;8.720;2023-04-23T00:30:28;98958.44;;;18.73;48.05
14383;BME280;7275;50.328;8.720;2023-04-23T00:32:55;98954.03;;;18.72;48.00
14383;BME280;7275;50.328;8.720;2023-04-23T00:35:23;98954.03;;;18.72;48.20
14383;BME280;7275;50.328;8.720;2023-04-23T00:37:50;98958.53;;;18.71;48.19
14383;BME280;7275;50.328;8.720;2023-04-23T00:40:18;98953.47;;;18.68;48.24
14383;BME280;7275;50.328;8.720;2023-04-23T00:42:46;98960.41;;;18.71;48.27
14383;BME280;7275;50.328;8.720;2023-04-23T00:45:19;98954.31;;;18.69;48.17
14383;BME280;7275;50.328;8.720;2023-04-23T00:47:47;98961.63;;;18.67;48.46
14383;BME280;7275;50.328;8.720;2023-04-23T00:50:15;98956.50;;;18.64;48.29
14383;BME280;7275;50.328;8.720;2023-04-23T00:52:43;98954.81;;;18.63;48.44
14383;BME280;7275;50.328;8.720;2023-04-23T00:55:10;98955.78;;;18.62;48.44
14383;BME280;7275;50.328;8.720;2023-04-23T00:57:38;98956.78;;;18.61;48.56
14383;BME280;7275;50.328;8.720;2023-04-23T01:00:07;98953.25;;;18.60;48.50
14383;BME280;7275;50.328;8.720;2023-04-23T01:02:36;98956.78;;;18.61;48.65
14383;BME280;7275;50.328;8.720;2023-04-23T01:05:06;98956.88;;;18.59;48.78
14383;BME280;7275;50.328;8.720;2023-04-23T01:07:36;98961.28;;;18.60;48.66
14383;BME280;7275;50.328;8.720;2023-04-23T01:10:04;98951.44;;;18.61;48.80
14383;BME280;7275;50.328;8.720;2023-04-23T01:12:32;98953.97;;;18.62;48.87
14383;BME280;7275;50.328;8.720;2023-04-23T01:15:00;98948.59;;;18.62;48.68
14383;BME280;7275;50.328;8.720;2023-04-23T01:17:28;98955.66;;;18.63;48.70
14383;BME280;7275;50.328;8.720;2023-04-23T01:19:57;98957.38;;;18.64;48.66
14383;BME280;7275;50.328;8.720;2023-04-23T01:22:26;98962.72;;;18.64;48.80
14383;BME280;7275;50.328;8.720;2023-04-23T01:24:53;98967.94;;;18.66;48.79
14383;BME280;7275;50.328;8.720;2023-04-23T01:27:21;98963.31;;;18.68;48.79
14383;BME280;7275;50.328;8.720;2023-04-23T01:29:50;98964.41;;;18.65;48.80
14383;BME280;7275;50.328;8.720;2023-04-23T01:32:18;98966.50;;;18.62;48.88
14383;BME280;7275;50.328;8.720;2023-04-23T01:34:46;98966.63;;;18.60;48.95
14383;BME280;7275;50.328;8.720;2023-04-23T01:37:15;98970.41;;;18.58;49.06
14383;BME280;7275;50.328;8.720;2023-04-23T01:39:45;98965.28;;;18.55;49.12
14383;BME280;7275;50.328;8.720;2023-04-23T01:42:12;98960.06;;;18.53;49.00
14383;BME280;7275;50.328;8.720;2023-04-23T01:44:40;98967.38;;;18.51;49.12
14383;BME280;7275;50.328;8.720;2023-04-23T01:47:08;98963.72;;;18.52;49.01
14383;BME280;7275;50.328;8.720;2023-04-23T01:49:36;98970.91;;;18.52;49.02
14383;BME280;7275;50.328;8.720;2023-04-23T01:52:04;98977.94;;;18.53;48.99
14383;BME280;7275;50.328;8.720;2023-04-23T01:54:31;98969.19;;;18.51;48.97
14383;BME280;7275;50.328;8.720;2023-04-23T01:57:00;98984.41;;;18.50;49.24
14383;BME280;7275;50.328;8.720;2023-04-23T01:59:28;98966.63;;;18.49;49.21
14383;BME280;7275;50.328;8.720;2023-04-23T02:01:56;98973.81;;;18.49;49.08
14383;BME280;7275;50.328;8.720;2023-04-23T02:04:23;98971.13;;;18.49;49.14
14383;BME280;7275;50.328;8.720;2023-04-23T02:06:51;98976.38;;;18.50;49.14
14383;BME280;7275;50.328;8.720;2023-04-23T02:09:19;98968.22;;;18.52;49.25
14383;BME280;7275;50.328;8.720;2023-04-23T02:11:47;98978.94;;;18.52;49.18
14383;BME280;7275;50.328;8.720;2023-04-23T02:14:16;98973.72;;;18.50;49.34
14383;BME280;7275;50.328;8.720;2023-04-23T02:16:43;98976.63;;;18.47;49.25
14383;BME280;7275;50.328;8.720;2023-04-23T02:19:12;98982.09;;;18.46;49.31
14383;BME280;7275;50.328;8.720;2023-04-23T02:21:41;98984.97;;;18.43;49.35
14383;BME280;7275;50.328;8.720;2023-04-23T02:24:08;98982.44;;;18.41;49.30
14383;BME280;7275;50.328;8.720;2023-04-23T02:26:36;98989.59;;;18.41;49.39
14383;BME280;7275;50.328;8.720;2023-04-23T02:29:03;98983.41;;;18.40;49.45
14383;BME280;7275;50.328;8.720;2023-04-23T02:31:32;98991.69;;;18.37;49.52
14383;BME280;7275;50.328;8.720;2023-04-23T02:34:00;98995.47;;;18.34;49.67
14383;BME280;7275;50.328;8.720;2023-04-23T02:36:28;98986.69;;;18.32;49.68
14383;BME280;7275;50.328;8.720;2023-04-23T02:38:57;98994.00;;;18.30;49.77
14383;BME280;7275;50.328;8.720;2023-04-23T02:41:25;98982.44;;;18.30;49.66
14383;BME280;7275;50.328;8.720;2023-04-23T02:43:52;98988.78;;;18.29;49.84
14383;BME280;7275;50.328;8.720;2023-04-23T02:46:20;98988.66;;;18.30;49.80
14383;BME280;7275;50.328;8.720;2023-04-23T02:48:48;98989.75;;;18.28;49.84
14383;BME280;7275;50.328;8.720;2023-04-23T02:51:16;98998.75;;;18.27;49.75
14383;BME280;7275;50.328;8.720;2023-04-23T02:53:44;98988.06;;;18.27;49.86
14383;BME280;7275;50.328;8.720;2023-04-23T02:56:11;98989.75;;;18.28;49.89
14383;BME280;7275;50.328;8.720;2023-04-23T02:58:39;98993.28;;;18.28;49.93
14383;BME280;7275;50.328;8.720;2023-04-23T03:01:06;98999.50;;;18.29;49.97
14383;BME280;7275;50.328;8.720;2023-04-23T03:03:34;99003.00;;;18.29;49.84
14383;BME280;7275;50.328;8.720;2023-04-23T03:06:04;99001.16;;;18.30;50.04
14383;BME280;7275;50.328;8.720;2023-04-23T03:08:33;98997.63;;;18.29;49.87
14383;BME280;7275;50.328;8.720;2023-04-23T03:11:00;98999.50;;;18.29;49.94
14383;BME280;7275;50.328;8.720;2023-04-23T03:13:28;99002.03;;;18.30;50.05
14383;BME280;7275;50.328;8.720;2023-04-23T03:15:56;99006.53;;;18.30;50.17
14383;BME280;7275;50.328;8.720;2023-04-23T03:18:23;99003.84;;;18.30;50.14
14383;BME280;7275;50.328;8.720;2023-04-23T03:20:50;99002.25;;;18.27;50.06
14383;BME280;7275;50.328;8.720;2023-04-23T03:23:19;99002.66;;;18.23;50.11
14383;BME280;7275;50.328;8.720;2023-04-23T03:25:47;99007.28;;;18.21;50.41
14383;BME280;7275;50.328;8.720;2023-04-23T03:28:14;99008.38;;;18.18;50.37
14383;BME280;7275;50.328;8.720;2023-04-23T03:30:42;99007.72;;;18.15;50.53
14383;BME280;7275;50.328;8.720;2023-04-23T03:33:09;98999.97;;;18.12;50.50
14383;BME280;7275;50.328;8.720;2023-04-23T03:35:37;98989.41;;;18.10;50.53
14383;BME280;7275;50.328;8.720;2023-04-23T03:38:04;99001.06;;;18.09;50.63
14383;BME280;7275;50.328;8.720;2023-04-23T03:40:34;98996.56;;;18.10;50.72
14383;BME280;7275;50.328;8.720;2023-04-23T03:43:01;98999.09;;;18.11;50.55
14383;BME280;7275;50.328;8.720;2023-04-23T03:45:29;99002.78;;;18.10;50.75
14383;BME280;7275;50.328;8.720;2023-04-23T03:47:57;98993.88;;;18.10;50.82
14383;BME280;7275;50.328;8.720;2023-04-23T03:50:24;98993.16;;;18.08;50.70
14383;BME280;7275;50.328;8.720;2023-04-23T03:52:52;99005.69;;;18.07;50.74
14383;BME280;7275;50.328;8.720;2023-04-23T03:55:19;99009.44;;;18.05;50.90
14383;BME280;7275;50.328;8.720;2023-04-23T03:57:48;99001.53;;;18.03;50.93
14383;BME280;7275;50.328;8.720;2023-04-23T04:00:16;99002.50;;;18.02;51.00
14383;BME280;7275;50.328;8.720;2023-04-23T04:02:44;98998.13;;;18.01;50.84
14383;BME280;7275;50.328;8.720;2023-04-23T04:05:11;99010.66;;;18.01;50.94
14383;BME280;7275;50.328;8.720;2023-04-23T04:07:39;99008.09;;;17.99;50.80
14383;BME280;7275;50.328;8.720;2023-04-23T04:10:08;99005.56;;;17.98;50.87
14383;BME280;7275;50.328;8.720;2023-04-23T04:12:36;99004.09;;;17.94;50.84
14383;BME280;7275;50.328;8.720;2023-04-23T04:15:06;99009.81;;;17.89;50.89
14383;BME280;7275;50.328;8.720;2023-04-23T04:17:34;99013.69;;;17.85;51.12
14383;BME280;7275;50.328;8.720;2023-04-23T04:20:01;99012.97;;;17.83;50.94
14383;BME280;7275;50.328;8.720;2023-04-23T04:22:29;99015.84;;;17.80;51.26
14383;BME280;7275;50.328;8.720;2023-04-23T04:24:56;99021.34;;;17.79;51.35
14383;BME280;7275;50.328;8.720;2023-04-23T04:27:24;99010.63;;;17.79;51.08
14383;BME280;7275;50.328;8.720;2023-04-23T04:29:52;99007.97;;;17.79;51.04
14383;BME280;7275;50.328;8.720;2023-04-23T04:32:21;99008.91;;;17.78;51.05
14383;BME280;7275;50.328;8.720;2023-04-23T04:34:48;99015.00;;;17.80;51.07
14383;BME280;7275;50.328;8.720;2023-04-23T04:37:16;99014.25;;;17.78;51.18
14383;BME280;7275;50.328;8.720;2023-04-23T04:39:43;99020.59;;;17.77;51.22
14383;BME280;7275;50.328;8.720;2023-04-23T04:42:11;99021.69;;;17.74;51.10
14383;BME280;7275;50.328;8.720;2023-04-23T04:44:38;99020.81;;;17.74;51.13
14383;BME280;7275;50.328;8.720;2023-04-23T04:47:08;99026.16;;;17.74;51.38
14383;BME280;7275;50.328;8.720;2023-04-23T04:49:37;99027.97;;;17.73;51.30
14383;BME280;7275;50.328;8.720;2023-04-23T04:52:04;99027.03;;;17.74;51.32
14383;BME280;7275;50.328;8.720;2023-04-23T04:54:32;99027.88;;;17.75;51.44
14383;BME280;7275;50.328;8.720;2023-04-23T04:56:59;99018.88;;;17.76;51.46
14383;BME280;7275;50.328;8.720;2023-04-23T04:59:27;99022.28;;;17.78;51.48
14383;BME280;7275;50.328;8.720;2023-04-23T05:01:55;99019.53;;;17.79;51.23
14383;BME280;7275;50.328;8.720;2023-04-23T05:04:23;99026.31;;;17.83;51.53
14383;BME280;7275;50.328;8.720;2023-04-23T05:06:52;99023.53;;;17.85;51.39
14383;BME280;7275;50.328;8.720;2023-04-23T05:09:19;99028.75;;;17.86;51.43
14383;BME280;7275;50.328;8.720;2023-04-23T05:11:47;99022.31;;;17.89;51.47
14383;BME280;7275;50.328;8.720;2023-04-23T05:14:14;99022.19;;;17.90;51.29
14383;BME280;7275;50.328;8.720;2023-04-23T05:16:42;99018.44;;;17.93;51.38
14383;BME280;7275;50.328;8.720;2023-04-23T05:19:10;99019.03;;;17.96;51.33
14383;BME280;7275;50.328;8.720;2023-04-23T05:21:37;99019.53;;;18.01;51.16
14383;BME280;7275;50.328;8.720;2023-04-23T05:24:07;99019.91;;;18.08;51.14
14383;BME280;7275;50.328;8.720;2023-04-23T05:26:34;99021.84;;;18.17;50.94
14383;BME280;7275;50.328;8.720;2023-04-23T05:29:01;99011.50;;;18.23;50.84
14383;BME280;7275;50.328;8.720;2023-04-23T05:31:29;99005.44;;;18.32;50.71
14383;BME280;7275;50.328;8.720;2023-04-23T05:33:57;99019.03;;;18.41;50.60
14383;BME280;7275;50.328;8.720;2023-04-23T05:36:24;99011.75;;;18.43;50.65
14383;BME280;7275;50.328;8.720;2023-04-23T05:38:52;99027.72;;;18.44;50.49
14383;BME280;7275;50.328;8.720;2023-04-23T05:41:21;99026.13;;;18.42;50.76
14383;BME280;7275;50.328;8.720;2023-04-23T05:43:49;99035.38;;;18.38;50.95
14383;BME280;7275;50.328;8.720;2023-04-23T05:46:16;99031.09;;;18.35;51.01
14383;BME280;7275;50.328;8.720;2023-04-23T05:48:44;99022.44;;;18.31;50.85
14383;BME280;7275;50.328;8.720;2023-04-23T05:51:12;99032.44;;;18.29;51.08
14383;BME280;7275;50.328;8.720;2023-04-23T05:53:39;99036.09;;;18.28;51.06
14383;BME280;7275;50.328;8.720;2023-04-23T05:56:07;99032.56;;;18.28;51.35
14383;BME280;7275;50.328;8.720;2023-04-23T05:58:35;99033.41;;;18.28;51.41
14383;BME280;7275;50.328;8.720;2023-04-23T06:01:04;99041.31;;;18.30;51.28
14383;BME280;7275;50.328;8.720;2023-04-23T06:03:32;99045.81;;;18.29;51.41
14383;BME280;7275;50.328;8.720;2023-04-23T06:05:59;99044.00;;;18.30;51.39
14383;BME280;7275;50.328;8.720;2023-04-23T06:08:27;99046.78;;;18.28;51.31
14383;BME280;7275;50.328;8.720;2023-04-23T06:10:55;99049.59;;;18.27;51.45
14383;BME280;7275;50.328;8.720;2023-04-23T06:13:22;99044.47;;;18.24;51.56
14383;BME280;7275;50.328;8.720;2023-04-23T06:15:51;99051.91;;;18.20;51.43
14383;BME280;7275;50.328;8.720;2023-04-23T06:18:19;99057.38;;;18.19;51.67
14383;BME280;7275;50.328;8.720;2023-04-23T06:20:46;99055.66;;;18.18;51.58
14383;BME280;7275;50.328;8.720;2023-04-23T06:23:16;99053.94;;;18.17;51.74
14383;BME280;7275;50.328;8.720;2023-04-23T06:25:44;99056.63;;;18.17;51.74
14383;BME280;7275;50.328;8.720;2023-04-23T06:28:11;99053.13;;;18.16;51.67
14383;BME280;7275;50.328;8.720;2023-04-23T06:30:39;99053.13;;;18.16;51.87
14383;BME280;7275;50.328;8.720;2023-04-23T06:33:08;99038.75;;;18.17;51.95
14383;BME280;7275;50.328;8.720;2023-04-23T06:35:36;99039.38;;;18.21;51.98
14383;BME280;7275;50.328;8.720;2023-04-23T06:38:03;99032.69;;;18.26;52.16
14383;BME280;7275;50.328;8.720;2023-04-23T06:40:31;99025.88;;;18.33;52.31
14383;BME280;7275;50.328;8.720;2023-04-23T06:42:59;99029.56;;;18.44;52.27
14383;BME280;7275;50.328;8.720;2023-04-23T06:45:29;99032.34;;;18.53;52.29
14383;BME280;7275;50.328;8.720;2023-04-23T06:47:59;99038.41;;;18.66;52.34
14383;BME280;7275;50.328;8.720;2023-04-23T06:50:28;99038.13;;;18.80;52.15
14383;BME280;7275;50.328;8.720;2023-04-23T06:52:56;99029.44;;;18.99;52.13
14383;BME280;7275;50.328;8.720;2023-04-23T06:55:24;99030.59;;;19.17;51.95
14383;BME280;7275;50.328;8.720;2023-04-23T06:57:51;99026.56;;;19.34;51.92
14383;BME280;7275;50.328;8.720;2023-04-23T07:00:21;99042.06;;;19.51;51.46
14383;BME280;7275;50.328;8.720;2023-04-23T07:02:49;99043.25;;;19.58;51.12
14383;BME280;7275;50.328;8.720;2023-04-23T07:05:17;99037.75;;;19.59;50.49
14383;BME280;7275;50.328;8.720;2023-04-23T07:07:46;99040.97;;;19.53;50.34
14383;BME280;7275;50.328;8.720;2023-04-23T07:10:13;99039.75;;;19.46;49.95
14383;BME280;7275;50.328;8.720;2023-04-23T07:12:43;99025.91;;;19.41;50.19
14383;BME280;7275;50.328;8.720;2023-04-23T07:15:11;99027.88;;;19.39;50.26
14383;BME280;7275;50.328;8.720;2023-04-23T07:17:38;99024.09;;;19.42;50.41
14383;BME280;7275;50.328;8.720;2023-04-23T07:20:07;99018.22;;;19.48;50.37
14383;BME280;7275;50.328;8.720;2023-04-23T07:22:35;99019.38;;;19.55;50.38
14383;BME280;7275;50.328;8.720;2023-04-23T07:25:04;99016.31;;;19.59;50.39
14383;BME280;7275;50.328;8.720;2023-04-23T07:27:34;99010.19;;;19.68;50.38
14383;BME280;7275;50.328;8.720;2023-04-23T07:30:02;98996.09;;;19.76;50.31
14383;BME280;7275;50.328;8.720;2023-04-23T07:32:30;98995.47;;;19.83;50.13
14383;BME280;7275;50.328;8.720;2023-04-23T07:34:58;99010.88;;;19.91;49.96
14383;BME280;7275;50.328;8.720;2023-04-23T07:37:25;99004.00;;;19.98;49.62
14383;BME280;7275;50.328;8.720;2023-04-23T07:39:53;98992.44;;;20.07;49.73
14383;BME280;7275;50.328;8.720;2023-04-23T07:42:21;98997.75;;;20.18;49.72
14383;BME280;7275;50.328;8.720;2023-04-23T07:44:49;98991.59;;;20.27;49.78
14383;BME280;7275;50.328;8.720;2023-04-23T07:47:16;98983.31;;;20.40;49.56
14383;BME280;7275;50.328;8.720;2023-04-23T07:49:44;98978.69;;;20.51;49.43
14383;BME280;7275;50.328;8.720;2023-04-23T07:52:11;98992.16;;;20.61;49.32
14383;BME280;7275;50.328;8.720;2023-04-23T07:54:39;98998.50;;;20.69;49.22
14383;BME280;7275;50.328;8.720;2023-04-23T07:57:06;98995.88;;;20.79;49.15
14383;BME280;7275;50.328;8.720;2023-04-23T07:59:35;99007.72;;;20.86;48.95
14383;BME280;7275;50.328;8.720;2023-04-23T08:02:05;99009.03;;;20.92;48.79
14383;BME280;7275;50.328;8.720;2023-04-23T08:04:32;98993.22;;;20.98;48.59
14383;BME280;7275;50.328;8.720;2023-04-23T08:07:00;98992.78;;;21.03;48.63
14383;BME280;7275;50.328;8.720;2023-04-23T08:09:28;98988.88;;;21.07;48.40
14383;BME280;7275;50.328;8.720;2023-04-23T08:11:55;98995.78;;;21.09;47.98
14383;BME280;7275;50.328;8.720;2023-04-23T08:14:23;98988.41;;;21.11;47.96
14383;BME280;7275;50.328;8.720;2023-04-23T08:16:51;98981.22;;;21.12;47.80
14383;BME280;7275;50.328;8.720;2023-04-23T08:19:19;98987.16;;;21.15;48.10
14383;BME280;7275;50.328;8.720;2023-04-23T08:21:47;98986.31;;;21.24;47.64
14383;BME280;7275;50.328;8.720;2023-04-23T08:24:15;98978.38;;;21.32;47.68
14383;BME280;7275;50.328;8.720;2023-04-23T08:26:42;98988.44;;;21.40;47.54
14383;BME280;7275;50.328;8.720;2023-04-23T08:29:10;98986.00;;;21.46;47.13
14383;BME280;7275;50.328;8.720;2023-04-23T08:31:37;98972.84;;;21.53;46.91
14383;BME280;7275;50.328;8.720;2023-04-23T08:34:06;98988.28;;;21.61;46.96
14383;BME280;7275;50.328;8.720;2023-04-23T08:36:34;98978.06;;;21.64;46.92
14383;BME280;7275;50.328;8.720;2023-04-23T08:39:01;98977.66;;;21.69;46.98
14383;BME280;7275;50.328;8.720;2023-04-23T08:41:33;98967.28;;;21.74;46.67
14383;BME280;7275;50.328;8.720;2023-04-23T08:44:07;98985.28;;;21.83;46.72
14383;BME280;7275;50.328;8.720;2023-04-23T08:46:41;98966.72;;;21.89;46.41
14383;BME280;7275;50.328;8.720;2023-04-23T08:51:42;98967.03;;;22.13;46.60
14383;BME280;7275;50.328;8.720;2023-04-23T08:54:16;98976.66;;;22.25;46.22
14383;BME280;7275;50.328;8.720;2023-04-23T08:56:45;98978.84;;;22.40;46.10
14383;BME280;7275;50.328;8.720;2023-04-23T08:59:14;98977.50;;;22.53;45.54
14383;BME280;7275;50.328;8.720;2023-04-23T09:01:43;98972.34;;;22.69;45.66
14383;BME280;7275;50.328;8.720;2023-04-23T09:04:12;98966.97;;;22.87;45.83
14383;BME280;7275;50.328;8.720;2023-04-23T09:06:42;98956.75;;;23.08;45.81
14383;BME280;7275;50.328;8.720;2023-04-23T09:09:10;98957.13;;;23.31;45.26
14383;BME280;7275;50.328;8.720;2023-04-23T09:11:39;98975.41;;;23.54;44.80
14383;BME280;7275;50.328;8.720;2023-04-23T09:14:07;98961.09;;;23.79;44.05
14383;BME280;7275;50.328;8.720;2023-04-23T09:16:34;98959.16;;;23.98;44.13
14383;BME280;7275;50.328;8.720;2023-04-23T09:19:02;98958.50;;;24.21;43.98
14383;BME280;7275;50.328;8.720;2023-04-23T09:21:31;98961.69;;;24.58;43.55
14383;BME280;7275;50.328;8.720;2023-04-23T09:23:59;98960.50;;;25.11;43.37
14383;BME280;7275;50.328;8.720;2023-04-23T09:26:30;98952.47;;;25.59;42.37
14383;BME280;7275;50.328;8.720;2023-04-23T09:28:58;98953.09;;;25.77;41.43
14383;BME280;7275;50.328;8.720;2023-04-23T09:31:26;98946.28;;;26.13;41.03
14383;BME280;7275;50.328;8.720;2023-04-23T09:33:54;98948.03;;;26.45;40.39
14383;BME280;7275;50.328;8.720;2023-04-23T09:36:22;98943.88;;;26.65;40.36
14383;BME280;7275;50.328;8.720;2023-04-23T09:38:55;98939.00;;;26.91;39.97
14383;BME280;7275;50.328;8.720;2023-04-23T09:41:23;98925.28;;;27.61;39.09
14383;BME280;7275;50.328;8.720;2023-04-23T09:43:52;98932.50;;;28.20;38.72
14383;BME280;7275;50.328;8.720;2023-04-23T09:46:31;98928.53;;;28.23;38.21
14383;BME280;7275;50.328;8.720;2023-04-23T09:49:01;98923.75;;;28.39;38.07
14383;BME280;7275;50.328;8.720;2023-04-23T09:51:29;98918.81;;;28.58;37.59
14383;BME280;7275;50.328;8.720;2023-04-23T09:54:00;98917.75;;;28.44;36.66
14383;BME280;7275;50.328;8.720;2023-04-23T09:56:29;98919.16;;;27.96;36.86
14383;BME280;7275;50.328;8.720;2023-04-23T09:58:56;98921.31;;;27.49;37.06
14383;BME280;7275;50.328;8.720;2023-04-23T10:01:28;98919.72;;;27.32;37.48
14383;BME280;7275;50.328;8.720;2023-04-23T10:03:55;98916.69;;;27.04;37.35
14383;BME280;7275;50.328;8.720;2023-04-23T10:06:27;98912.34;;;26.64;37.26
14383;BME280;7275;50.328;8.720;2023-04-23T10:09:03;98917.03;;;26.40;37.70
14383;BME280;7275;50.328;8.720;2023-04-23T10:11:31;98908.94;;;26.78;37.75
14383;BME280;7275;50.328;8.720;2023-04-23T10:13:58;98906.50;;;27.06;37.30
14383;BME280;7275;50.328;8.720;2023-04-23T10:16:26;98900.84;;;27.76;36.64
14383;BME280;7275;50.328;8.720;2023-04-23T10:19:13;98891.22;;;28.31;36.28
14383;BME280;7275;50.328;8.720;2023-04-23T10:21:43;98887.66;;;28.81;35.56
14383;BME280;7275;50.328;8.720;2023-04-23T10:24:23;98902.97;;;29.18;35.19
14383;BME280;7275;50.328;8.720;2023-04-23T10:26:56;98905.94;;;28.87;34.58
14383;BME280;7275;50.328;8.720;2023-04-23T10:29:28;98897.78;;;28.37;34.61
14383;BME280;7275;50.328;8.720;2023-04-23T10:31:58;98897.94;;;27.92;34.64
14383;BME280;7275;50.328;8.720;2023-04-23T10:34:28;98897.25;;;27.60;35.57
14383;BME280;7275;50.328;8.720;2023-04-23T10:36:57;98920.31;;;27.64;35.12
14383;BME280;7275;50.328;8.720;2023-04-23T10:39:31;98904.63;;;28.18;35.01
14383;BME280;7275;50.328;8.720;2023-04-23T10:42:00;98892.97;;;28.89;34.51
14383;BME280;7275;50.328;8.720;2023-04-23T10:44:32;98892.72;;;29.41;34.38
14383;BME280;7275;50.328;8.720;2023-04-23T10:47:20;98902.72;;;29.62;33.91
14383;BME280;7275;50.328;8.720;2023-04-23T10:49:48;98897.66;;;29.80;33.83
14383;BME280;7275;50.328;8.720;2023-04-23T10:52:17;98884.97;;;29.93;33.03
14383;BME280;7275;50.328;8.720;2023-04-23T10:54:56;98886.88;;;29.99;33.01
14383;BME280;7275;50.328;8.720;2023-04-23T10:57:25;98877.66;;;30.00;32.96
14383;BME280;7275;50.328;8.720;2023-04-23T10:59:53;98881.63;;;29.70;32.91
14383;BME280;7275;50.328;8.720;2023-04-23T11:02:23;98888.69;;;29.37;32.61
14383;BME280;7275;50.328;8.720;2023-04-23T11:04:53;98879.28;;;29.18;33.05
14383;BME280;7275;50.328;8.720;2023-04-23T11:07:25;98875.72;;;28.97;32.89
14383;BME280;7275;50.328;8.720;2023-04-23T11:09:58;98872.41;;;28.80;33.45
14383;BME280;7275;50.328;8.720;2023-04-23T11:12:32;98870.28;;;28.61;33.28
14383;BME280;7275;50.328;8.720;2023-04-23T11:15:09;98872.59;;;28.28;33.19
14383;BME280;7275;50.328;8.720;2023-04-23T11:17:58;98869.91;;;27.77;33.46
14383;BME280;7275;50.328;8.720;2023-04-23T11:20:27;98873.84;;;27.22;33.16
14383;BME280;7275;50.328;8.720;2023-04-23T11:22:55;98870.63;;;26.73;34.16
14383;BME280;7275;50.328;8.720;2023-04-23T11:25:25;98885.22;;;26.34;34.46
14383;BME280;7275;50.328;8.720;2023-04-23T11:27:54;98862.97;;;25.99;34.64
14383;BME280;7275;50.328;8.720;2023-04-23T11:30:25;98879.97;;;25.77;34.56
14383;BME280;7275;50.328;8.720;2023-04-23T11:32:53;98873.59;;;25.54;35.10
14383;BME280;7275;50.328;8.720;2023-04-23T11:35:23;98865.81;;;25.35;35.33
14383;BME280;7275;50.328;8.720;2023-04-23T11:37:54;98858.72;;;25.26;35.76
14383;BME280;7275;50.328;8.720;2023-04-23T11:40:22;98869.38;;;25.19;35.82
14383;BME280;7275;50.328;8.720;2023-04-23T11:42:52;98861.44;;;25.26;35.98
14383;BME280;7275;50.328;8.720;2023-04-23T11:45:21;98852.13;;;25.36;35.93
14383;BME280;7275;50.328;8.720;2023-04-23T11:47:51;98845.00;;;25.52;35.65
14383;BME280;7275;50.328;8.720;2023-04-23T11:50:22;98840.94;;;25.64;35.48
14383;BME280;7275;50.328;8.720;2023-04-23T11:52:50;98845.47;;;25.71;35.26
14383;BME280;7275;50.328;8.720;2023-04-23T11:55:19;98826.34;;;25.73;35.59
14383;BME280;7275;50.328;8.720;2023-04-23T11:57:48;98835.84;;;25.69;35.65
14383;BME280;7275;50.328;8.720;2023-04-23T12:00:19;98828.44;;;25.55;35.74
14383;BME280;7275;50.328;8.720;2023-04-23T12:02:51;98829.97;;;25.41;35.43
14383;BME280;7275;50.328;8.720;2023-04-23T12:05:20;98826.41;;;25.24;35.68
14383;BME280;7275;50.328;8.720;2023-04-23T12:07:49;98831.34;;;25.13;35.84
14383;BME280;7275;50.328;8.720;2023-04-23T12:10:18;98822.88;;;25.08;36.06
14383;BME280;7275;50.328;8.720;2023-04-23T12:12:50;98823.72;;;25.16;35.71
14383;BME280;7275;50.328;8.720;2023-04-23T12:15:19;98810.34;;;25.55;35.82
14383;BME280;7275;50.328;8.720;2023-04-23T12:17:48;98815.19;;;25.76;35.68
14383;BME280;7275;50.328;8.720;2023-04-23T12:20:17;98819.78;;;25.67;35.14
14383;BME280;7275;50.328;8.720;2023-04-23T12:22:45;98821.69;;;25.43;35.08
14383;BME280;7275;50.328;8.720;2023-04-23T12:25:13;98834.03;;;25.13;35.05
14383;BME280;7275;50.328;8.720;2023-04-23T12:27:43;98825.91;;;24.81;35.09
14383;BME280;7275;50.328;8.720;2023-04-23T12:30:11;98827.22;;;24.52;35.45
14383;BME280;7275;50.328;8.720;2023-04-23T12:32:40;98827.81;;;24.22;36.02
14383;BME280;7275;50.328;8.720;2023-04-23T12:35:08;98816.88;;;23.90;36.61
14383;BME280;7275;50.328;8.720;2023-04-23T12:37:36;98802.75;;;23.62;36.70
14383;BME280;7275;50.328;8.720;2023-04-23T12:40:05;98806.25;;;23.55;37.41
14383;BME280;7275;50.328;8.720;2023-04-23T12:42:33;98803.19;;;23.83;37.07
14383;BME280;7275;50.328;8.720;2023-04-23T12:45:06;98796.72;;;24.84;37.35
14383;BME280;7275;50.328;8.720;2023-04-23T12:47:35;98791.06;;;25.89;36.23
14383;BME280;7275;50.328;8.720;2023-04-23T12:50:05;98787.88;;;27.15;34.84
14383;BME280;7275;50.328;8.720;2023-04-23T12:52:33;98776.53;;;28.42;33.55
14383;BME280;7275;50.328;8.720;2023-04-23T12:55:00;98774.16;;;29.45;32.90
14383;BME280;7275;50.328;8.720;2023-04-23T12:57:30;98761.47;;;30.53;31.57
14383;BME280;7275;50.328;8.720;2023-04-23T12:59:57;98755.38;;;31.63;30.54
14383;BME280;7275;50.328;8.720;2023-04-23T13:02:25;98755.59;;;32.63;29.71
14383;BME280;7275;50.328;8.720;2023-04-23T13:04:52;98747.97;;;33.52;29.11
14383;BME280;7275;50.328;8.720;2023-04-23T13:07:27;98733.47;;;34.47;28.01
14383;BME280;7275;50.328;8.720;2023-04-23T13:09:54;98725.59;;;35.21;27.08
14383;BME280;7275;50.328;8.720;2023-04-23T13:12:22;98719.38;;;35.14;26.75
14383;BME280;7275;50.328;8.720;2023-04-23T13:14:50;98709.91;;;34.99;26.86
14383;BME280;7275;50.328;8.720;2023-04-23T13:17:17;98698.44;;;35.36;26.60
14383;BME280;7275;50.328;8.720;2023-04-23T13:19:44;98698.88;;;35.80;25.88